Time;durP1;ratioP1;P1;durP2;ratioP2;P2;SDS_P1;SDS_P2;PMS_P1;PMS_P2;Temp;Humidity;BMP_temperature;BMP_pressure;BME280_temperature;BME280_humidity;BME280_pressure;Samples;Min_cycle;Max_cycle;Signal;HPM_P1;HPM_P2
2024/04/04 00:09:00;;;;;;;;;;;9.00;99.90;;;;;;6650530;89;20589;-78
2024/04/04 00:19:01;;;;;;;;;;;9.30;99.90;;;;;;6650384;89;20088;-78
2024/04/04 00:29:01;;;;;;;;;;;9.40;99.90;;;;;;6651705;89;20147;-78
2024/04/04 00:39:04;;;;;;;;;;;9.50;99.90;;;;;;6639921;89;20106;-77
2024/04/04 00:49:05;;;;;;;;;;;9.70;99.90;;;;;;6650330;89;20052;-77
2024/04/04 00:59:10;;;;;;;;;;;9.90;99.90;;;;;;6649517;89;20551;-78
2024/04/04 01:09:10;;;;;;;;;;;9.80;99.90;;;;;;6652327;89;20116;-78
2024/04/04 01:19:11;;;;;;;;;;;9.90;99.90;;;;;;6651671;89;20056;-77
2024/04/04 01:29:11;;;;;;;;;;;10.00;99.90;;;;;;6650438;89;20056;-77
2024/04/04 01:39:12;;;;;;;;;;;10.30;99.90;;;;;;6648781;89;20085;-77
2024/04/04 01:49:12;;;;;;;;;;;10.50;99.90;;;;;;6657183;89;20195;-77
2024/04/04 02:10:14;;;;;;;;;;;10.80;99.90;;;;;;6654063;89;20064;-78
2024/04/04 02:20:16;;;;;;;;;;;10.90;99.90;;;;;;6663049;89;20065;-77
2024/04/04 02:30:16;;;;;;;;;;;11.10;99.90;;;;;;6655705;89;20065;-78
2024/04/04 02:40:17;;;;;;;;;;;11.30;99.90;;;;;;6654432;89;20187;-79
2024/04/04 02:50:18;;;;;;;;;;;11.40;99.90;;;;;;6656710;89;20111;-78
2024/04/04 03:00:18;;;;;;;;;;;11.30;99.90;;;;;;6660931;89;20094;-78
2024/04/04 03:10:19;;;;;;;;;;;11.40;99.90;;;;;;6655789;89;20092;-79
2024/04/04 03:20:19;;;;;;;;;;;11.40;99.90;;;;;;6657691;89;20057;-78
2024/04/04 03:30:20;;;;;;;;;;;11.70;99.90;;;;;;6656376;89;20069;-78
2024/04/04 03:40:21;;;;;;;;;;;11.70;99.90;;;;;;6653979;89;20092;-78
2024/04/04 03:50:21;;;;;;;;;;;11.90;99.90;;;;;;6657961;89;20069;-78
2024/04/04 04:00:21;;;;;;;;;;;11.90;99.90;;;;;;6657567;89;20128;-78
2024/04/04 04:10:27;;;;;;;;;;;12.00;99.90;;;;;;6657264;89;20090;-78
2024/04/04 04:30:47;;;;;;;;;;;12.20;99.90;;;;;;6657563;89;20123;-79
2024/04/04 04:40:51;;;;;;;;;;;12.40;99.90;;;;;;6663423;89;20091;-78
2024/04/04 04:50:51;;;;;;;;;;;12.40;99.90;;;;;;6660582;89;20062;-78
2024/04/04 05:00:52;;;;;;;;;;;12.60;99.90;;;;;;6662261;89;20165;-77
2024/04/04 05:10:52;;;;;;;;;;;12.70;99.90;;;;;;6654122;89;20191;-78
2024/04/04 05:21:01;;;;;;;;;;;12.80;99.90;;;;;;6656453;89;20069;-78
2024/04/04 05:31:01;;;;;;;;;;;12.80;99.90;;;;;;6655027;89;20495;-78
2024/04/04 05:41:05;;;;;;;;;;;12.80;99.90;;;;;;6652760;89;20071;-79
2024/04/04 05:51:05;;;;;;;;;;;12.90;99.90;;;;;;6655671;89;20065;-78
2024/04/04 06:01:06;;;;;;;;;;;13.00;99.90;;;;;;6663387;89;20082;-79
2024/04/04 06:11:07;;;;;;;;;;;13.10;99.90;;;;;;6658165;89;20548;-78
2024/04/04 06:21:07;;;;;;;;;;;13.20;99.90;;;;;;6655036;89;20164;-79
2024/04/04 06:31:08;;;;;;;;;;;13.00;99.90;;;;;;6654210;89;20261;-78
2024/04/04 06:41:09;;;;;;;;;;;12.80;99.90;;;;;;6655140;89;20061;-78
2024/04/04 06:51:09;;;;;;;;;;;12.80;99.90;;;;;;6654997;89;20127;-78
2024/04/04 07:01:10;;;;;;;;;;;12.70;99.90;;;;;;6653985;89;20530;-79
2024/04/04 07:11:10;;;;;;;;;;;12.90;99.90;;;;;;6656010;89;20139;-78
2024/04/04 07:21:11;;;;;;;;;;;13.10;99.90;;;;;;6662574;89;20081;-78
2024/04/04 07:31:11;;;;;;;;;;;13.10;99.90;;;;;;6655656;89;20073;-79
2024/04/04 07:41:12;;;;;;;;;;;13.10;99.90;;;;;;6655500;89;20069;-79
2024/04/04 07:51:13;;;;;;;;;;;13.20;99.90;;;;;;6656373;89;20116;-80
2024/04/04 08:01:15;;;;;;;;;;;13.10;99.90;;;;;;6673638;78;20192;-77
2024/04/04 08:11:16;;;;;;;;;;;12.90;99.90;;;;;;6667982;89;20211;-78
2024/04/04 08:21:16;;;;;;;;;;;12.80;99.90;;;;;;6667314;89;20053;-78
2024/04/04 08:31:17;;;;;;;;;;;12.90;99.90;;;;;;6670059;89;20133;-78
2024/04/04 08:41:19;;;;;;;;;;;13.00;99.90;;;;;;6669646;88;20197;-78
2024/04/04 08:51:19;;;;;;;;;;;12.90;99.90;;;;;;6672286;89;20060;-77
2024/04/04 09:01:20;;;;;;;;;;;13.30;99.90;;;;;;6675820;88;20155;-77
2024/04/04 09:11:24;;;;;;;;;;;13.90;99.90;;;;;;6661827;89;20074;-78
2024/04/04 09:21:25;;;;;;;;;;;14.00;99.90;;;;;;6667493;89;20131;-77
2024/04/04 09:31:27;;;;;;;;;;;14.00;99.90;;;;;;6669397;88;20657;-76
2024/04/04 09:41:28;;;;;;;;;;;14.20;99.90;;;;;;6667017;89;20078;-77
2024/04/04 09:51:29;;;;;;;;;;;14.20;99.90;;;;;;6668847;89;20135;-78
2024/04/04 10:01:29;;;;;;;;;;;14.40;99.90;;;;;;6671913;88;20086;-78
2024/04/04 10:11:30;;;;;;;;;;;14.60;99.90;;;;;;6666783;89;20070;-78
2024/04/04 10:21:31;;;;;;;;;;;14.90;99.90;;;;;;6673353;89;20138;-78
2024/04/04 10:31:31;;;;;;;;;;;14.80;99.90;;;;;;6671409;89;20276;-78
2024/04/04 10:41:32;;;;;;;;;;;14.80;99.90;;;;;;6675927;88;20076;-78
2024/04/04 10:51:32;;;;;;;;;;;14.80;99.90;;;;;;6669337;89;20542;-78
2024/04/04 11:01:33;;;;;;;;;;;15.00;99.90;;;;;;6670523;89;20056;-77
2024/04/04 11:11:34;;;;;;;;;;;15.00;99.90;;;;;;6667751;88;20053;-78
2024/04/04 11:21:34;;;;;;;;;;;15.10;99.90;;;;;;6670675;89;20065;-78
2024/04/04 11:31:35;;;;;;;;;;;15.20;99.90;;;;;;6667558;89;20078;-77
2024/04/04 11:41:35;;;;;;;;;;;15.40;99.90;;;;;;6666790;89;20052;-79
2024/04/04 11:51:36;;;;;;;;;;;15.10;99.90;;;;;;6670115;89;20065;-79
2024/04/04 12:01:37;;;;;;;;;;;15.00;99.90;;;;;;6670944;89;20094;-79
2024/04/04 12:11:38;;;;;;;;;;;15.10;99.90;;;;;;6669472;89;20080;-77
2024/04/04 12:21:38;;;;;;;;;;;14.60;99.90;;;;;;6673488;89;20072;-78
2024/04/04 12:31:39;;;;;;;;;;;12.30;99.90;;;;;;6672872;89;20522;-78
2024/04/04 12:41:40;;;;;;;;;;;11.00;99.90;;;;;;6668279;89;20074;-78
2024/04/04 12:51:40;;;;;;;;;;;10.70;99.90;;;;;;6669880;89;20558;-78
2024/04/04 13:01:41;;;;;;;;;;;10.60;99.90;;;;;;6669675;89;20095;-78
2024/04/04 13:11:41;;;;;;;;;;;10.60;99.90;;;;;;6665309;89;20077;-78
2024/04/04 13:21:42;;;;;;;;;;;11.30;99.90;;;;;;6672390;89;20108;-78
2024/04/04 13:31:43;;;;;;;;;;;12.10;99.90;;;;;;6686013;88;20054;-78
2024/04/04 13:41:43;;;;;;;;;;;12.60;99.90;;;;;;6665797;89;20062;-78
2024/04/04 13:51:43;;;;;;;;;;;12.80;99.90;;;;;;6665462;89;20061;-78
2024/04/04 14:01:44;;;;;;;;;;;13.20;99.90;;;;;;6685098;78;20151;-79
2024/04/04 14:11:44;;;;;;;;;;;13.70;99.90;;;;;;6686536;88;20569;-77
2024/04/04 14:21:45;;;;;;;;;;;15.10;99.90;;;;;;6687876;88;20118;-78
2024/04/04 14:31:46;;;;;;;;;;;15.70;99.90;;;;;;6688090;89;20081;-77
2024/04/04 14:41:47;;;;;;;;;;;16.50;99.90;;;;;;6689063;89;20068;-78
2024/04/04 14:51:52;;;;;;;;;;;16.40;99.90;;;;;;6689052;89;20051;-78
2024/04/04 15:01:53;;;;;;;;;;;16.00;99.90;;;;;;6688544;88;20182;-78
2024/04/04 15:11:53;;;;;;;;;;;15.80;99.90;;;;;;6684769;89;20152;-79
2024/04/04 15:21:54;;;;;;;;;;;16.70;99.90;;;;;;6689971;88;20072;-79
2024/04/04 15:31:54;;;;;;;;;;;16.90;99.90;;;;;;6681419;88;20148;-77
2024/04/04 15:41:55;;;;;;;;;;;16.50;99.90;;;;;;6694675;89;20065;-78
2024/04/04 15:51:55;;;;;;;;;;;16.60;99.90;;;;;;6688639;89;20056;-78
2024/04/04 16:01:57;;;;;;;;;;;16.80;99.90;;;;;;6696653;88;20083;-78
2024/04/04 16:11:57;;;;;;;;;;;16.40;99.90;;;;;;6691516;89;20595;-79
2024/04/04 16:21:59;;;;;;;;;;;16.10;99.90;;;;;;6689766;88;20049;-78
2024/04/04 16:31:59;;;;;;;;;;;15.70;99.90;;;;;;6695260;88;20099;-79
2024/04/04 16:41:59;;;;;;;;;;;15.60;99.90;;;;;;6687595;89;20069;-79
2024/04/04 16:52:00;;;;;;;;;;;15.60;99.90;;;;;;6687455;88;20053;-78
2024/04/04 17:02:00;;;;;;;;;;;15.00;99.90;;;;;;6687434;89;20080;-78
2024/04/04 17:12:03;;;;;;;;;;;14.60;99.90;;;;;;6686464;89;20141;-79
2024/04/04 17:22:03;;;;;;;;;;;14.40;99.90;;;;;;6685915;89;20064;-79
2024/04/04 17:32:04;;;;;;;;;;;14.30;99.90;;;;;;6694978;88;20159;-78
2024/04/04 17:42:05;;;;;;;;;;;14.20;99.90;;;;;;6686997;88;20079;-77
2024/04/04 17:52:05;;;;;;;;;;;14.30;99.90;;;;;;6688617;88;20098;-78
2024/04/04 18:02:06;;;;;;;;;;;14.10;99.90;;;;;;6686750;88;20088;-78
2024/04/04 18:12:06;;;;;;;;;;;14.10;99.90;;;;;;6685016;89;20086;-77
2024/04/04 18:22:07;;;;;;;;;;;13.90;99.90;;;;;;6699924;88;20061;-78
2024/04/04 18:32:07;;;;;;;;;;;13.80;99.90;;;;;;6689082;89;20088;-78
2024/04/04 18:42:08;;;;;;;;;;;13.70;99.90;;;;;;6687543;88;20102;-77
2024/04/04 18:52:10;;;;;;;;;;;13.50;99.90;;;;;;6686612;88;20105;-78
2024/04/04 19:02:10;;;;;;;;;;;13.40;99.90;;;;;;6685593;88;20064;-78
2024/04/04 19:12:11;;;;;;;;;;;13.30;99.90;;;;;;6685873;88;20052;-77
2024/04/04 19:22:11;;;;;;;;;;;13.10;99.90;;;;;;6686096;89;20063;-77
2024/04/04 19:32:13;;;;;;;;;;;12.90;99.90;;;;;;6685894;88;20056;-77
2024/04/04 19:42:13;;;;;;;;;;;12.80;99.90;;;;;;6685847;89;20056;-79
2024/04/04 19:52:15;;;;;;;;;;;12.70;99.90;;;;;;6682984;89;20591;-80
2024/04/04 20:02:36;;;;;;;;;;;12.60;99.90;;;;;;6677671;76;20070;-79
2024/04/04 20:12:37;;;;;;;;;;;12.50;99.90;;;;;;6740682;88;20232;-79
2024/04/04 20:22:39;;;;;;;;;;;12.30;99.90;;;;;;6741144;88;20641;-79
2024/04/04 20:32:39;;;;;;;;;;;12.40;99.90;;;;;;6743740;88;20074;-79
2024/04/04 20:42:40;;;;;;;;;;;12.20;99.90;;;;;;6742016;88;20057;-80
2024/04/04 20:52:41;;;;;;;;;;;12.10;99.90;;;;;;6740090;88;20605;-79
2024/04/04 21:02:41;;;;;;;;;;;12.20;99.90;;;;;;6742613;88;20092;-78
2024/04/04 21:12:42;;;;;;;;;;;12.20;99.90;;;;;;6742147;88;20116;-80
2024/04/04 21:22:42;;;;;;;;;;;12.10;99.90;;;;;;6742296;88;20057;-80
2024/04/04 21:32:43;;;;;;;;;;;11.90;99.90;;;;;;6739236;88;20090;-79
2024/04/04 21:42:43;;;;;;;;;;;11.90;99.90;;;;;;6742343;88;20053;-79
2024/04/04 21:52:43;;;;;;;;;;;11.90;99.90;;;;;;6741568;88;20065;-79
2024/04/04 22:02:44;;;;;;;;;;;12.00;99.90;;;;;;6741806;88;20083;-79
2024/04/04 22:12:44;;;;;;;;;;;11.90;99.90;;;;;;6740761;88;20081;-79
2024/04/04 22:22:45;;;;;;;;;;;11.80;99.90;;;;;;6741954;88;20063;-79
2024/04/04 22:32:45;;;;;;;;;;;11.80;99.90;;;;;;6741570;88;20525;-79
2024/04/04 22:42:47;;;;;;;;;;;11.70;99.90;;;;;;6737824;88;20104;-79
2024/04/04 22:52:47;;;;;;;;;;;11.10;99.90;;;;;;6737702;88;20082;-79
2024/04/04 23:02:49;;;;;;;;;;;11.00;99.90;;;;;;6738863;88;20058;-80
2024/04/04 23:12:50;;;;;;;;;;;11.10;99.90;;;;;;6738440;88;20661;-79
2024/04/04 23:22:50;;;;;;;;;;;11.20;99.90;;;;;;6736842;88;20049;-80
2024/04/04 23:32:51;;;;;;;;;;;11.20;99.90;;;;;;6737327;88;20065;-79
2024/04/04 23:42:51;;;;;;;;;;;11.20;99.90;;;;;;6738163;88;20049;-80
2024/04/04 23:52:52;;;;;;;;;;;11.20;99.90;;;;;;6746802;88;20100;-78
